sensor_id;sensor_type;location;lat;lon;timestamp;temperature;humidity
1678;DHT22;6034;46.864;15.216;2023-09-19T00:00:21;20.80;99.90
1678;DHT22;6034;46.864;15.216;2023-09-19T00:02:54;20.80;99.90
1678;DHT22;6034;46.864;15.216;2023-09-19T00:05:23;20.80;99.90
1678;DHT22;6034;46.864;15.216;2023-09-19T00:07:54;20.70;99.90
1678;DHT22;6034;46.864;15.216;2023-09-19T00:10:21;20.70;99.90
1678;DHT22;6034;46.864;15.216;2023-09-19T00:12:51;20.80;99.90
1678;DHT22;6034;46.864;15.216;2023-09-19T00:15:21;20.80;99.90
1678;DHT22;6034;46.864;15.216;2023-09-19T00:17:48;20.60;99.90
1678;DHT22;6034;46.864;15.216;2023-09-19T00:20:18;20.70;99.90
1678;DHT22;6034;46.864;15.216;2023-09-19T00:22:48;20.70;99.90
1678;DHT22;6034;46.864;15.216;2023-09-19T00:25:16;20.70;99.90
1678;DHT22;6034;46.864;15.216;2023-09-19T00:27:44;20.70;99.90
1678;DHT22;6034;46.864;15.216;2023-09-19T00:30:18;20.70;99.90
1678;DHT22;6034;46.864;15.216;2023-09-19T00:32:48;20.70;99.90
1678;DHT22;6034;46.864;15.216;2023-09-19T00:35:15;20.70;99.90
1678;DHT22;6034;46.864;15.216;2023-09-19T00:37:43;20.60;99.90
1678;DHT22;6034;46.864;15.216;2023-09-19T00:40:10;20.60;99.90
1678;DHT22;6034;46.864;15.216;2023-09-19T00:42:39;20.60;99.90
1678;DHT22;6034;46.864;15.216;2023-09-19T00:45:07;20.60;99.90
1678;DHT22;6034;46.864;15.216;2023-09-19T00:47:39;20.60;99.90
1678;DHT22;6034;46.864;15.216;2023-09-19T00:50:08;20.60;99.90
1678;DHT22;6034;46.864;15.216;2023-09-19T00:52:37;20.60;99.90
1678;DHT22;6034;46.864;15.216;2023-09-19T00:55:06;20.60;99.90
1678;DHT22;6034;46.864;15.216;2023-09-19T00:57:34;20.60;99.90
1678;DHT22;6034;46.864;15.216;2023-09-19T01:00:05;20.50;99.90
1678;DHT22;6034;46.864;15.216;2023-09-19T01:02:35;20.50;99.90
1678;DHT22;6034;46.864;15.216;2023-09-19T01:05:05;20.60;99.90
1678;DHT22;6034;46.864;15.216;2023-09-19T01:07:33;20.60;99.90
1678;DHT22;6034;46.864;15.216;2023-09-19T01:10:02;20.40;99.90
1678;DHT22;6034;46.864;15.216;2023-09-19T01:12:42;20.50;99.90
1678;DHT22;6034;46.864;15.216;2023-09-19T01:15:16;20.60;99.90
1678;DHT22;6034;46.864;15.216;2023-09-19T01:17:48;20.50;99.90
1678;DHT22;6034;46.864;15.216;2023-09-19T01:20:27;20.60;99.90
1678;DHT22;6034;46.864;15.216;2023-09-19T01:23:09;20.60;99.90
1678;DHT22;6034;46.864;15.216;2023-09-19T01:26:18;20.50;99.90
1678;DHT22;6034;46.864;15.216;2023-09-19T01:28:54;20.50;99.90
1678;DHT22;6034;46.864;15.216;2023-09-19T01:31:25;20.50;99.90
1678;DHT22;6034;46.864;15.216;2023-09-19T01:34:00;20.50;99.90
1678;DHT22;6034;46.864;15.216;2023-09-19T01:36:31;20.40;99.90
1678;DHT22;6034;46.864;15.216;2023-09-19T01:39:02;20.20;99.90
1678;DHT22;6034;46.864;15.216;2023-09-19T01:41:57;20.30;99.90
1678;DHT22;6034;46.864;15.216;2023-09-19T01:44:44;20.40;99.90
1678;DHT22;6034;46.864;15.216;2023-09-19T01:47:22;20.20;99.90
1678;DHT22;6034;46.864;15.216;2023-09-19T01:49:56;20.30;99.90
1678;DHT22;6034;46.864;15.216;2023-09-19T01:52:30;20.40;99.90
1678;DHT22;6034;46.864;15.216;2023-09-19T01:55:05;20.40;99.90
1678;DHT22;6034;46.864;15.216;2023-09-19T01:57:37;20.40;99.90
1678;DHT22;6034;46.864;15.216;2023-09-19T02:00:09;20.30;99.90
1678;DHT22;6034;46.864;15.216;2023-09-19T02:02:42;20.40;99.90
1678;DHT22;6034;46.864;15.216;2023-09-19T02:05:11;20.40;99.90
1678;DHT22;6034;46.864;15.216;2023-09-19T02:07:39;20.40;99.90
1678;DHT22;6034;46.864;15.216;2023-09-19T02:10:07;20.30;99.90
1678;DHT22;6034;46.864;15.216;2023-09-19T02:12:36;20.30;99.90
1678;DHT22;6034;46.864;15.216;2023-09-19T02:15:05;20.30;99.90
1678;DHT22;6034;46.864;15.216;2023-09-19T02:17:33;20.30;99.90
1678;DHT22;6034;46.864;15.216;2023-09-19T02:20:02;20.30;99.90
1678;DHT22;6034;46.864;15.216;2023-09-19T02:22:36;20.30;99.90
1678;DHT22;6034;46.864;15.216;2023-09-19T02:25:05;20.30;99.90
1678;DHT22;6034;46.864;15.216;2023-09-19T02:27:33;20.20;99.90
1678;DHT22;6034;46.864;15.216;2023-09-19T02:30:01;20.10;99.90
1678;DHT22;6034;46.864;15.216;2023-09-19T02:32:29;20.00;99.90
1678;DHT22;6034;46.864;15.216;2023-09-19T02:34:57;20.00;99.90
1678;DHT22;6034;46.864;15.216;2023-09-19T02:37:27;19.90;99.90
1678;DHT22;6034;46.864;15.216;2023-09-19T02:39:54;19.90;99.90
1678;DHT22;6034;46.864;15.216;2023-09-19T02:42:22;20.00;99.90
1678;DHT22;6034;46.864;15.216;2023-09-19T02:44:49;19.90;99.90
1678;DHT22;6034;46.864;15.216;2023-09-19T02:47:17;19.90;99.90
1678;DHT22;6034;46.864;15.216;2023-09-19T02:49:45;19.90;99.90
1678;DHT22;6034;46.864;15.216;2023-09-19T02:52:12;19.90;99.90
1678;DHT22;6034;46.864;15.216;2023-09-19T02:54:41;19.90;99.90
1678;DHT22;6034;46.864;15.216;2023-09-19T02:57:14;19.80;99.90
1678;DHT22;6034;46.864;15.216;2023-09-19T02:59:43;19.80;99.90
1678;DHT22;6034;46.864;15.216;2023-09-19T03:02:10;19.80;99.90
1678;DHT22;6034;46.864;15.216;2023-09-19T03:04:38;19.80;99.90
1678;DHT22;6034;46.864;15.216;2023-09-19T03:07:05;19.70;99.90
1678;DHT22;6034;46.864;15.216;2023-09-19T03:09:33;19.70;99.90
1678;DHT22;6034;46.864;15.216;2023-09-19T03:12:02;19.70;99.90
1678;DHT22;6034;46.864;15.216;2023-09-19T03:14:30;19.70;99.90
1678;DHT22;6034;46.864;15.216;2023-09-19T03:17:01;19.60;99.90
1678;DHT22;6034;46.864;15.216;2023-09-19T03:19:30;19.60;99.90
1678;DHT22;6034;46.864;15.216;2023-09-19T03:21:59;19.50;99.90
1678;DHT22;6034;46.864;15.216;2023-09-19T03:24:26;19.40;99.90
1678;DHT22;6034;46.864;15.216;2023-09-19T03:26:55;19.40;99.90
1678;DHT22;6034;46.864;15.216;2023-09-19T03:29:24;19.30;99.90
1678;DHT22;6034;46.864;15.216;2023-09-19T03:31:52;19.30;99.90
1678;DHT22;6034;46.864;15.216;2023-09-19T03:34:20;19.20;99.90
1678;DHT22;6034;46.864;15.216;2023-09-19T03:36:48;19.20;99.90
1678;DHT22;6034;46.864;15.216;2023-09-19T03:39:16;19.00;99.90
1678;DHT22;6034;46.864;15.216;2023-09-19T03:41:43;19.00;99.90
1678;DHT22;6034;46.864;15.216;2023-09-19T03:44:11;19.10;99.90
1678;DHT22;6034;46.864;15.216;2023-09-19T03:46:40;19.20;99.90
1678;DHT22;6034;46.864;15.216;2023-09-19T03:49:07;19.20;99.90
1678;DHT22;6034;46.864;15.216;2023-09-19T03:51:36;19.10;99.90
1678;DHT22;6034;46.864;15.216;2023-09-19T03:54:03;18.90;99.90
1678;DHT22;6034;46.864;15.216;2023-09-19T03:56:31;19.10;99.90
1678;DHT22;6034;46.864;15.216;2023-09-19T03:58:58;19.10;99.90
1678;DHT22;6034;46.864;15.216;2023-09-19T04:01:26;19.20;99.90
1678;DHT22;6034;46.864;15.216;2023-09-19T04:03:55;19.20;99.90
1678;DHT22;6034;46.864;15.216;2023-09-19T04:06:22;19.10;99.90
1678;DHT22;6034;46.864;15.216;2023-09-19T04:08:50;19.20;99.90
1678;DHT22;6034;46.864;15.216;2023-09-19T04:11:17;19.10;99.90
1678;DHT22;6034;46.864;15.216;2023-09-19T04:13:44;19.10;99.90
1678;DHT22;6034;46.864;15.216;2023-09-19T04:16:12;19.10;99.90
1678;DHT22;6034;46.864;15.216;2023-09-19T04:18:39;19.10;99.90
1678;DHT22;6034;46.864;15.216;2023-09-19T04:21:08;19.00;99.90
1678;DHT22;6034;46.864;15.216;2023-09-19T04:23:35;19.00;99.90
1678;DHT22;6034;46.864;15.216;2023-09-19T04:26:02;19.00;99.90
1678;DHT22;6034;46.864;15.216;2023-09-19T04:28:31;19.00;99.90
1678;DHT22;6034;46.864;15.216;2023-09-19T04:31:00;19.00;99.90
1678;DHT22;6034;46.864;15.216;2023-09-19T04:33:27;19.00;99.90
1678;DHT22;6034;46.864;15.216;2023-09-19T04:35:54;19.00;99.90
1678;DHT22;6034;46.864;15.216;2023-09-19T04:38:24;19.00;99.90
1678;DHT22;6034;46.864;15.216;2023-09-19T04:40:57;19.00;99.90
1678;DHT22;6034;46.864;15.216;2023-09-19T04:43:25;19.00;99.90
1678;DHT22;6034;46.864;15.216;2023-09-19T04:45:52;19.00;99.90
1678;DHT22;6034;46.864;15.216;2023-09-19T04:48:21;19.00;99.90
1678;DHT22;6034;46.864;15.216;2023-09-19T04:50:51;19.00;99.90
1678;DHT22;6034;46.864;15.216;2023-09-19T04:53:18;19.00;99.90
1678;DHT22;6034;46.864;15.216;2023-09-19T04:55:51;19.00;99.90
1678;DHT22;6034;46.864;15.216;2023-09-19T04:58:21;18.90;99.90
1678;DHT22;6034;46.864;15.216;2023-09-19T05:00:49;18.90;99.90
1678;DHT22;6034;46.864;15.216;2023-09-19T05:03:17;18.90;99.90
1678;DHT22;6034;46.864;15.216;2023-09-19T05:05:46;18.80;99.90
1678;DHT22;6034;46.864;15.216;2023-09-19T05:08:14;18.70;99.90
1678;DHT22;6034;46.864;15.216;2023-09-19T05:10:41;18.70;99.90
1678;DHT22;6034;46.864;15.216;2023-09-19T05:13:10;18.80;99.90
1678;DHT22;6034;46.864;15.216;2023-09-19T05:15:38;18.70;99.90
1678;DHT22;6034;46.864;15.216;2023-09-19T05:18:06;18.60;99.90
1678;DHT22;6034;46.864;15.216;2023-09-19T05:20:34;18.70;99.90
1678;DHT22;6034;46.864;15.216;2023-09-19T05:23:05;18.60;99.90
1678;DHT22;6034;46.864;15.216;2023-09-19T05:25:39;18.60;99.90
1678;DHT22;6034;46.864;15.216;2023-09-19T05:28:07;18.60;99.90
1678;DHT22;6034;46.864;15.216;2023-09-19T05:30:36;18.70;99.90
1678;DHT22;6034;46.864;15.216;2023-09-19T05:33:04;18.60;99.90
1678;DHT22;6034;46.864;15.216;2023-09-19T05:35:32;18.70;99.90
1678;DHT22;6034;46.864;15.216;2023-09-19T05:38:01;18.60;99.90
1678;DHT22;6034;46.864;15.216;2023-09-19T05:40:28;18.70;99.90
1678;DHT22;6034;46.864;15.216;2023-09-19T05:42:55;18.70;99.90
1678;DHT22;6034;46.864;15.216;2023-09-19T05:45:23;18.70;99.90
1678;DHT22;6034;46.864;15.216;2023-09-19T05:47:53;18.70;99.90
1678;DHT22;6034;46.864;15.216;2023-09-19T05:50:21;18.70;99.90
1678;DHT22;6034;46.864;15.216;2023-09-19T05:52:54;18.70;99.90
1678;DHT22;6034;46.864;15.216;2023-09-19T05:55:21;18.70;99.90
1678;DHT22;6034;46.864;15.216;2023-09-19T05:57:51;18.60;99.90
1678;DHT22;6034;46.864;15.216;2023-09-19T06:00:18;18.70;99.90
1678;DHT22;6034;46.864;15.216;2023-09-19T06:02:53;18.70;99.90
1678;DHT22;6034;46.864;15.216;2023-09-19T06:05:21;18.70;99.90
1678;DHT22;6034;46.864;15.216;2023-09-19T06:07:48;18.70;99.90
1678;DHT22;6034;46.864;15.216;2023-09-19T06:10:16;18.60;99.90
1678;DHT22;6034;46.864;15.216;2023-09-19T06:12:44;18.50;99.90
1678;DHT22;6034;46.864;15.216;2023-09-19T06:15:12;18.30;99.90
1678;DHT22;6034;46.864;15.216;2023-09-19T06:17:41;18.40;99.90
1678;DHT22;6034;46.864;15.216;2023-09-19T06:20:12;18.50;99.90
1678;DHT22;6034;46.864;15.216;2023-09-19T06:22:42;18.50;99.90
1678;DHT22;6034;46.864;15.216;2023-09-19T06:25:10;18.60;99.90
1678;DHT22;6034;46.864;15.216;2023-09-19T06:27:41;18.50;99.90
1678;DHT22;6034;46.864;15.216;2023-09-19T06:30:10;18.50;99.90
1678;DHT22;6034;46.864;15.216;2023-09-19T06:32:39;18.50;99.90
1678;DHT22;6034;46.864;15.216;2023-09-19T06:35:11;18.40;99.90
1678;DHT22;6034;46.864;15.216;2023-09-19T06:37:39;18.40;99.90
1678;DHT22;6034;46.864;15.216;2023-09-19T06:40:08;18.40;99.90
1678;DHT22;6034;46.864;15.216;2023-09-19T06:42:40;18.40;99.90
1678;DHT22;6034;46.864;15.216;2023-09-19T06:45:08;18.50;99.90
1678;DHT22;6034;46.864;15.216;2023-09-19T06:47:37;18.50;99.90
1678;DHT22;6034;46.864;15.216;2023-09-19T06:50:06;18.70;99.90
1678;DHT22;6034;46.864;15.216;2023-09-19T06:52:41;18.40;99.90
1678;DHT22;6034;46.864;15.216;2023-09-19T06:55:08;18.50;99.90
1678;DHT22;6034;46.864;15.216;2023-09-19T06:57:39;18.60;99.90
1678;DHT22;6034;46.864;15.216;2023-09-19T07:00:07;18.60;99.90
1678;DHT22;6034;46.864;15.216;2023-09-19T07:02:41;18.60;99.90
1678;DHT22;6034;46.864;15.216;2023-09-19T07:05:08;18.40;99.90
1678;DHT22;6034;46.864;15.216;2023-09-19T07:07:36;18.30;99.90
1678;DHT22;6034;46.864;15.216;2023-09-19T07:10:06;18.50;99.90
1678;DHT22;6034;46.864;15.216;2023-09-19T07:12:34;18.20;99.90
1678;DHT22;6034;46.864;15.216;2023-09-19T07:15:01;18.20;99.90
1678;DHT22;6034;46.864;15.216;2023-09-19T07:17:29;18.30;99.90
1678;DHT22;6034;46.864;15.216;2023-09-19T07:19:56;18.30;99.90
1678;DHT22;6034;46.864;15.216;2023-09-19T07:22:25;18.40;99.90
1678;DHT22;6034;46.864;15.216;2023-09-19T07:24:53;18.40;99.90
1678;DHT22;6034;46.864;15.216;2023-09-19T07:27:22;18.30;99.90
1678;DHT22;6034;46.864;15.216;2023-09-19T07:29:49;18.20;99.90
1678;DHT22;6034;46.864;15.216;2023-09-19T07:32:16;18.30;99.90
1678;DHT22;6034;46.864;15.216;2023-09-19T07:34:44;18.50;99.90
1678;DHT22;6034;46.864;15.216;2023-09-19T07:37:11;18.70;99.90
1678;DHT22;6034;46.864;15.216;2023-09-19T07:39:42;19.00;99.90
1678;DHT22;6034;46.864;15.216;2023-09-19T07:42:10;19.00;99.90
1678;DHT22;6034;46.864;15.216;2023-09-19T07:44:45;19.10;99.90
1678;DHT22;6034;46.864;15.216;2023-09-19T07:47:15;19.20;99.90
1678;DHT22;6034;46.864;15.216;2023-09-19T07:49:43;19.20;99.90
1678;DHT22;6034;46.864;15.216;2023-09-19T07:52:13;19.30;99.90
1678;DHT22;6034;46.864;15.216;2023-09-19T07:54:41;19.30;99.90
1678;DHT22;6034;46.864;15.216;2023-09-19T07:57:10;19.40;99.90
1678;DHT22;6034;46.864;15.216;2023-09-19T07:59:38;19.40;99.90
1678;DHT22;6034;46.864;15.216;2023-09-19T08:02:09;19.60;99.90
1678;DHT22;6034;46.864;15.216;2023-09-19T08:04:41;19.90;99.90
1678;DHT22;6034;46.864;15.216;2023-09-19T08:07:09;20.00;99.90
1678;DHT22;6034;46.864;15.216;2023-09-19T08:09:36;20.00;99.90
1678;DHT22;6034;46.864;15.216;2023-09-19T08:12:04;20.00;99.90
1678;DHT22;6034;46.864;15.216;2023-09-19T08:14:34;20.00;99.90
1678;DHT22;6034;46.864;15.216;2023-09-19T08:17:01;20.10;99.90
1678;DHT22;6034;46.864;15.216;2023-09-19T08:19:32;20.10;99.90
1678;DHT22;6034;46.864;15.216;2023-09-19T08:21:59;20.10;99.90
1678;DHT22;6034;46.864;15.216;2023-09-19T08:24:28;20.20;99.90
1678;DHT22;6034;46.864;15.216;2023-09-19T08:26:56;20.50;99.90
1678;DHT22;6034;46.864;15.216;2023-09-19T08:29:24;20.70;99.90
1678;DHT22;6034;46.864;15.216;2023-09-19T08:31:54;20.90;99.90
1678;DHT22;6034;46.864;15.216;2023-09-19T08:34:22;21.00;99.90
1678;DHT22;6034;46.864;15.216;2023-09-19T08:36:52;21.20;99.90
1678;DHT22;6034;46.864;15.216;2023-09-19T08:39:22;21.40;99.90
1678;DHT22;6034;46.864;15.216;2023-09-19T08:41:49;21.40;99.90
1678;DHT22;6034;46.864;15.216;2023-09-19T08:44:17;21.60;99.90
1678;DHT22;6034;46.864;15.216;2023-09-19T08:46:45;21.70;99.90
1678;DHT22;6034;46.864;15.216;2023-09-19T08:49:22;21.80;99.90
1678;DHT22;6034;46.864;15.216;2023-09-19T08:52:01;21.80;99.90
1678;DHT22;6034;46.864;15.216;2023-09-19T08:54:35;21.80;99.90
1678;DHT22;6034;46.864;15.216;2023-09-19T08:57:07;21.70;99.90
1678;DHT22;6034;46.864;15.216;2023-09-19T08:59:38;21.40;99.90
1678;DHT22;6034;46.864;15.216;2023-09-19T09:02:11;21.40;99.90
1678;DHT22;6034;46.864;15.216;2023-09-19T09:04:40;21.50;99.90
1678;DHT22;6034;46.864;15.216;2023-09-19T09:07:11;21.70;99.90
1678;DHT22;6034;46.864;15.216;2023-09-19T09:09:40;21.90;99.90
1678;DHT22;6034;46.864;15.216;2023-09-19T09:12:10;21.80;99.90
1678;DHT22;6034;46.864;15.216;2023-09-19T09:14:39;21.80;99.90
1678;DHT22;6034;46.864;15.216;2023-09-19T09:17:07;21.80;99.90
1678;DHT22;6034;46.864;15.216;2023-09-19T09:19:35;21.80;99.90
1678;DHT22;6034;46.864;15.216;2023-09-19T09:22:07;21.50;99.90
1678;DHT22;6034;46.864;15.216;2023-09-19T09:24:36;21.60;99.90
1678;DHT22;6034;46.864;15.216;2023-09-19T09:27:06;21.90;99.90
1678;DHT22;6034;46.864;15.216;2023-09-19T09:29:44;21.90;99.90
1678;DHT22;6034;46.864;15.216;2023-09-19T09:32:22;21.80;99.90
1678;DHT22;6034;46.864;15.216;2023-09-19T09:34:52;21.70;99.90
1678;DHT22;6034;46.864;15.216;2023-09-19T09:37:20;21.40;99.90
1678;DHT22;6034;46.864;15.216;2023-09-19T09:39:54;21.50;99.90
1678;DHT22;6034;46.864;15.216;2023-09-19T09:42:31;21.60;99.90
1678;DHT22;6034;46.864;15.216;2023-09-19T09:45:14;21.60;99.90
1678;DHT22;6034;46.864;15.216;2023-09-19T09:47:43;21.70;99.90
1678;DHT22;6034;46.864;15.216;2023-09-19T09:50:31;21.80;99.90
1678;DHT22;6034;46.864;15.216;2023-09-19T09:53:20;21.80;99.90
1678;DHT22;6034;46.864;15.216;2023-09-19T09:56:00;21.90;99.90
1678;DHT22;6034;46.864;15.216;2023-09-19T09:58:28;22.00;99.90
1678;DHT22;6034;46.864;15.216;2023-09-19T10:00:59;21.80;99.90
1678;DHT22;6034;46.864;15.216;2023-09-19T10:03:35;21.90;99.90
1678;DHT22;6034;46.864;15.216;2023-09-19T10:06:07;21.90;99.90
1678;DHT22;6034;46.864;15.216;2023-09-19T10:09:01;21.90;99.90
1678;DHT22;6034;46.864;15.216;2023-09-19T10:11:44;22.10;99.90
1678;DHT22;6034;46.864;15.216;2023-09-19T10:14:12;22.10;99.90
1678;DHT22;6034;46.864;15.216;2023-09-19T10:16:44;21.70;99.90
1678;DHT22;6034;46.864;15.216;2023-09-19T10:19:16;21.80;99.90
1678;DHT22;6034;46.864;15.216;2023-09-19T10:21:49;22.20;99.90
1678;DHT22;6034;46.864;15.216;2023-09-19T10:24:18;22.50;99.90
1678;DHT22;6034;46.864;15.216;2023-09-19T10:26:48;22.70;99.90
1678;DHT22;6034;46.864;15.216;2023-09-19T10:29:18;22.80;99.90
1678;DHT22;6034;46.864;15.216;2023-09-19T10:31:47;22.30;99.90
1678;DHT22;6034;46.864;15.216;2023-09-19T10:34:17;21.80;99.90
1678;DHT22;6034;46.864;15.216;2023-09-19T10:36:45;22.10;99.90
1678;DHT22;6034;46.864;15.216;2023-09-19T10:39:15;22.10;99.90
1678;DHT22;6034;46.864;15.216;2023-09-19T10:41:51;22.30;99.90
1678;DHT22;6034;46.864;15.216;2023-09-19T10:44:26;22.30;99.90
1678;DHT22;6034;46.864;15.216;2023-09-19T10:46:54;22.30;99.90
1678;DHT22;6034;46.864;15.216;2023-09-19T10:49:23;22.50;99.90
1678;DHT22;6034;46.864;15.216;2023-09-19T10:51:53;22.60;99.90
1678;DHT22;6034;46.864;15.216;2023-09-19T10:54:27;22.90;99.90
1678;DHT22;6034;46.864;15.216;2023-09-19T10:56:57;22.80;99.90
1678;DHT22;6034;46.864;15.216;2023-09-19T10:59:26;22.90;99.90
1678;DHT22;6034;46.864;15.216;2023-09-19T11:02:15;22.70;99.90
1678;DHT22;6034;46.864;15.216;2023-09-19T11:04:43;22.90;99.90
1678;DHT22;6034;46.864;15.216;2023-09-19T11:07:14;23.10;99.90
1678;DHT22;6034;46.864;15.216;2023-09-19T11:09:50;23.40;99.90
1678;DHT22;6034;46.864;15.216;2023-09-19T11:12:51;23.30;99.90
1678;DHT22;6034;46.864;15.216;2023-09-19T11:18:51;23.60;99.90
1678;DHT22;6034;46.864;15.216;2023-09-19T11:21:52;23.60;99.90
1678;DHT22;6034;46.864;15.216;2023-09-19T11:24:31;23.60;99.90
1678;DHT22;6034;46.864;15.216;2023-09-19T11:27:12;23.50;99.90
1678;DHT22;6034;46.864;15.216;2023-09-19T11:29:41;23.60;99.90
1678;DHT22;6034;46.864;15.216;2023-09-19T11:32:08;23.70;99.90
1678;DHT22;6034;46.864;15.216;2023-09-19T11:40:28;24.00;99.90
1678;DHT22;6034;46.864;15.216;2023-09-19T11:42:56;23.60;99.90
1678;DHT22;6034;46.864;15.216;2023-09-19T11:46:06;23.80;99.90
1678;DHT22;6034;46.864;15.216;2023-09-19T11:48:39;23.90;99.90
1678;DHT22;6034;46.864;15.216;2023-09-19T11:51:14;23.50;99.90
1678;DHT22;6034;46.864;15.216;2023-09-19T11:53:45;23.40;99.90
1678;DHT22;6034;46.864;15.216;2023-09-19T11:56:16;23.20;99.90
1678;DHT22;6034;46.864;15.216;2023-09-19T11:58:44;23.20;99.90
1678;DHT22;6034;46.864;15.216;2023-09-19T12:01:23;23.20;99.90
1678;DHT22;6034;46.864;15.216;2023-09-19T12:03:54;23.30;99.90
1678;DHT22;6034;46.864;15.216;2023-09-19T12:06:23;23.30;99.90
1678;DHT22;6034;46.864;15.216;2023-09-19T12:08:51;23.50;99.90
1678;DHT22;6034;46.864;15.216;2023-09-19T12:11:21;23.20;99.90
1678;DHT22;6034;46.864;15.216;2023-09-19T12:13:49;23.50;99.90
1678;DHT22;6034;46.864;15.216;2023-09-19T12:16:20;23.80;99.90
1678;DHT22;6034;46.864;15.216;2023-09-19T12:18:52;23.90;99.90
1678;DHT22;6034;46.864;15.216;2023-09-19T12:21:26;23.90;99.90
1678;DHT22;6034;46.864;15.216;2023-09-19T12:24:14;24.00;99.90
1678;DHT22;6034;46.864;15.216;2023-09-19T12:26:46;24.10;99.90
1678;DHT22;6034;46.864;15.216;2023-09-19T12:29:19;24.20;99.90
1678;DHT22;6034;46.864;15.216;2023-09-19T12:31:50;24.00;99.90
1678;DHT22;6034;46.864;15.216;2023-09-19T12:34:22;23.60;99.90
1678;DHT22;6034;46.864;15.216;2023-09-19T12:37:04;23.90;99.90
1678;DHT22;6034;46.864;15.216;2023-09-19T12:39:38;24.10;99.90
1678;DHT22;6034;46.864;15.216;2023-09-19T12:42:08;24.30;99.90
1678;DHT22;6034;46.864;15.216;2023-09-19T12:44:37;24.30;99.90
1678;DHT22;6034;46.864;15.216;2023-09-19T12:47:12;24.40;99.90
1678;DHT22;6034;46.864;15.216;2023-09-19T12:50:10;24.50;99.90
1678;DHT22;6034;46.864;15.216;2023-09-19T12:52:44;24.00;99.90
1678;DHT22;6034;46.864;15.216;2023-09-19T12:55:26;23.80;99.90
1678;DHT22;6034;46.864;15.216;2023-09-19T12:58:08;23.80;99.90
1678;DHT22;6034;46.864;15.216;2023-09-19T13:00:36;23.80;99.90
1678;DHT22;6034;46.864;15.216;2023-09-19T13:03:16;23.90;99.90
1678;DHT22;6034;46.864;15.216;2023-09-19T13:05:53;23.90;99.90
1678;DHT22;6034;46.864;15.216;2023-09-19T13:08:26;23.90;99.90
1678;DHT22;6034;46.864;15.216;2023-09-19T13:11:06;23.90;99.90
1678;DHT22;6034;46.864;15.216;2023-09-19T13:13:36;23.80;99.90
1678;DHT22;6034;46.864;15.216;2023-09-19T13:16:04;23.80;99.90
1678;DHT22;6034;46.864;15.216;2023-09-19T13:18:51;23.70;99.90
1678;DHT22;6034;46.864;15.216;2023-09-19T13:21:31;23.70;99.90
1678;DHT22;6034;46.864;15.216;2023-09-19T13:24:19;23.60;99.90
1678;DHT22;6034;46.864;15.216;2023-09-19T13:26:47;23.70;99.90
1678;DHT22;6034;46.864;15.216;2023-09-19T13:29:14;23.70;99.90
1678;DHT22;6034;46.864;15.216;2023-09-19T13:31:46;23.70;99.90
1678;DHT22;6034;46.864;15.216;2023-09-19T13:34:15;23.70;99.90
1678;DHT22;6034;46.864;15.216;2023-09-19T13:36:43;23.60;99.90
1678;DHT22;6034;46.864;15.216;2023-09-19T13:39:10;23.50;99.90
1678;DHT22;6034;46.864;15.216;2023-09-19T13:41:39;23.50;99.90
1678;DHT22;6034;46.864;15.216;2023-09-19T13:44:07;23.50;99.90
1678;DHT22;6034;46.864;15.216;2023-09-19T13:46:36;23.50;99.90
1678;DHT22;6034;46.864;15.216;2023-09-19T13:49:04;23.50;99.90
1678;DHT22;6034;46.864;15.216;2023-09-19T13:51:33;23.30;99.90
1678;DHT22;6034;46.864;15.216;2023-09-19T13:54:01;23.20;99.90
1678;DHT22;6034;46.864;15.216;2023-09-19T13:56:28;23.20;99.90
1678;DHT22;6034;46.864;15.216;2023-09-19T13:58:56;23.30;99.90
1678;DHT22;6034;46.864;15.216;2023-09-19T14:01:24;23.50;99.90
1678;DHT22;6034;46.864;15.216;2023-09-19T14:03:52;23.50;99.90
1678;DHT22;6034;46.864;15.216;2023-09-19T14:06:21;23.60;99.90
1678;DHT22;6034;46.864;15.216;2023-09-19T14:08:50;23.70;99.90
1678;DHT22;6034;46.864;15.216;2023-09-19T14:11:18;23.70;99.90
1678;DHT22;6034;46.864;15.216;2023-09-19T14:13:45;23.80;99.90
1678;DHT22;6034;46.864;15.216;2023-09-19T14:16:16;23.80;99.90
1678;DHT22;6034;46.864;15.216;2023-09-19T14:18:45;23.70;99.90
1678;DHT22;6034;46.864;15.216;2023-09-19T14:21:13;23.60;99.90
1678;DHT22;6034;46.864;15.216;2023-09-19T14:23:41;23.60;99.90
1678;DHT22;6034;46.864;15.216;2023-09-19T14:26:11;23.60;99.90
1678;DHT22;6034;46.864;15.216;2023-09-19T14:28:38;23.60;99.90
1678;DHT22;6034;46.864;15.216;2023-09-19T14:31:06;23.50;99.90
1678;DHT22;6034;46.864;15.216;2023-09-19T14:33:34;23.40;99.90
1678;DHT22;6034;46.864;15.216;2023-09-19T14:36:05;23.40;99.90
1678;DHT22;6034;46.864;15.216;2023-09-19T14:38:35;23.30;99.90
1678;DHT22;6034;46.864;15.216;2023-09-19T14:41:04;23.30;99.90
1678;DHT22;6034;46.864;15.216;2023-09-19T14:43:33;23.20;99.90
1678;DHT22;6034;46.864;15.216;2023-09-19T14:46:03;23.10;99.90
1678;DHT22;6034;46.864;15.216;2023-09-19T14:48:30;23.10;99.90
1678;DHT22;6034;46.864;15.216;2023-09-19T14:51:02;23.20;99.90
1678;DHT22;6034;46.864;15.216;2023-09-19T14:53:30;23.20;99.90
1678;DHT22;6034;46.864;15.216;2023-09-19T14:56:00;23.20;99.90
1678;DHT22;6034;46.864;15.216;2023-09-19T14:58:30;23.20;99.90
1678;DHT22;6034;46.864;15.216;2023-09-19T15:01:07;23.30;99.90
1678;DHT22;6034;46.864;15.216;2023-09-19T15:03:36;23.30;99.90
1678;DHT22;6034;46.864;15.216;2023-09-19T15:06:07;23.20;99.90
1678;DHT22;6034;46.864;15.216;2023-09-19T15:08:37;23.20;99.90
1678;DHT22;6034;46.864;15.216;2023-09-19T15:11:07;23.20;99.90
1678;DHT22;6034;46.864;15.216;2023-09-19T15:13:36;23.10;99.90
1678;DHT22;6034;46.864;15.216;2023-09-19T15:16:06;23.00;99.90
1678;DHT22;6034;46.864;15.216;2023-09-19T15:18:37;22.90;99.90
1678;DHT22;6034;46.864;15.216;2023-09-19T15:21:07;23.00;99.90
1678;DHT22;6034;46.864;15.216;2023-09-19T15:23:37;23.00;99.90
1678;DHT22;6034;46.864;15.216;2023-09-19T15:26:06;22.90;99.90
1678;DHT22;6034;46.864;15.216;2023-09-19T15:28:37;22.90;99.90
1678;DHT22;6034;46.864;15.216;2023-09-19T15:31:09;22.90;99.90
1678;DHT22;6034;46.864;15.216;2023-09-19T15:33:38;22.80;99.90
1678;DHT22;6034;46.864;15.216;2023-09-19T15:36:07;22.80;99.90
1678;DHT22;6034;46.864;15.216;2023-09-19T15:38:57;22.70;99.90
1678;DHT22;6034;46.864;15.216;2023-09-19T15:41:26;22.70;99.90
1678;DHT22;6034;46.864;15.216;2023-09-19T15:43:55;22.60;99.90
1678;DHT22;6034;46.864;15.216;2023-09-19T15:46:26;22.60;99.90
1678;DHT22;6034;46.864;15.216;2023-09-19T15:48:55;22.60;99.90
1678;DHT22;6034;46.864;15.216;2023-09-19T15:51:25;22.60;99.90
1678;DHT22;6034;46.864;15.216;2023-09-19T15:53:54;22.60;99.90
1678;DHT22;6034;46.864;15.216;2023-09-19T15:56:23;22.50;99.90
1678;DHT22;6034;46.864;15.216;2023-09-19T15:58:54;22.50;99.90
1678;DHT22;6034;46.864;15.216;2023-09-19T16:01:23;22.50;99.90
1678;DHT22;6034;46.864;15.216;2023-09-19T16:03:54;22.40;99.90
1678;DHT22;6034;46.864;15.216;2023-09-19T16:06:23;22.30;99.90
1678;DHT22;6034;46.864;15.216;2023-09-19T16:08:54;22.30;99.90
1678;DHT22;6034;46.864;15.216;2023-09-19T16:11:25;22.30;99.90
1678;DHT22;6034;46.864;15.216;2023-09-19T16:13:53;22.30;99.90
1678;DHT22;6034;46.864;15.216;2023-09-19T16:16:23;22.30;99.90